| time (UTC) | temp C | wind direction | speed KPH | gust KPH | rain 1hr cm | rain 24hr cm | rain mn cm | humidity % | barometer mb |
| 20260906071513 | 20 | 76 | 4.8 | 11.3 | 0.00 | 0.05 | 0.00 | 91 | 1015.3 |
| 20260906070049 | 20 | 69 | 1.6 | 12.9 | 0.00 | 0.05 | 0.00 | 91 | 1015.3 |
| 20260906064507 | 20 | 106 | 6.4 | 16.1 | 0.00 | 0.05 | 0.00 | 91 | 1015.6 |
| 20260906063028 | 21 | 87 | 6.4 | 16.1 | 0.00 | 0.05 | 0.00 | 92 | 1015.3 |
| 20260906061623 | 21 | 107 | 3.2 | 17.7 | 0.00 | 0.05 | 0.00 | 92 | 1015.3 |
| 20260906060022 | 21 | 150 | 1.6 | 12.9 | 0.00 | 0.05 | 0.00 | 92 | 1015.3 |
| 20260906054551 | 21 | 104 | 4.8 | 11.3 | 0.00 | 0.05 | 0.00 | 92 | 1015.3 |
| 20260906053002 | 21 | 114 | 1.6 | 14.5 | 0.00 | 0.05 | 0.00 | 92 | 1015.3 |
| 20260906051526 | 21 | 116 | 6.4 | 12.9 | 0.00 | 0.05 | 0.00 | 92 | 1014.9 |
| 20260906050046 | 21 | 156 | 1.6 | 12.9 | 0.00 | 0.05 | 0.00 | 92 | 1014.8 |
| 20260906044558 | 21 | 116 | 1.6 | 14.5 | 0.00 | 0.05 | 0.00 | 91 | 1014.8 |
| 20260906043028 | 22 | 106 | 4.8 | 14.5 | 0.00 | 0.05 | 0.00 | 91 | 1014.5 |
| 20260906041546 | 22 | 134 | 4.8 | 17.7 | 0.00 | 0.05 | 0.00 | 91 | 1014.4 |
| 20260906040115 | 22 | 93 | 4.8 | 14.5 | 0.00 | 0.05 | 0.00 | 91 | 1014.5 |
| 20260906034530 | 22 | 82 | 4.8 | 8.0 | 0.00 | 0.05 | 0.05 | 90 | 1014.7 |
| 20260906033050 | 22 | 139 | 0.0 | 0.0 | 0.00 | 0.05 | 0.05 | 90 | 1014.3 |
| 20260906031529 | 22 | 146 | 0.0 | 3.2 | 0.00 | 0.05 | 0.05 | 89 | 1014.5 |
| 20260906030046 | 22 | 141 | 0.0 | 3.2 | 0.00 | 0.05 | 0.05 | 88 | 1014.5 |
| 20260906024516 | 22 | 146 | 0.0 | 3.2 | 0.00 | 0.05 | 0.05 | 87 | 1014.5 |
| 20260906023102 | 22 | 146 | 0.0 | 3.2 | 0.00 | 0.05 | 0.05 | 86 | 1014.6 |
| 20260906021510 | 22 | 133 | 0.0 | 6.4 | 0.00 | 0.05 | 0.05 | 85 | 1014.5 |
| 20260906020035 | 22 | 152 | 0.0 | 8.0 | 0.00 | 0.05 | 0.05 | 84 | 1014.6 |
| 20260906014506 | 22 | 117 | 0.0 | 6.4 | 0.00 | 0.05 | 0.05 | 82 | 1014.0 |
| 20260906013032 | 22 | 145 | 0.0 | 4.8 | 0.00 | 0.05 | 0.05 | 80 | 1013.9 |
| 20260906011559 | 22 | 121 | 0.0 | 6.4 | 0.00 | 0.05 | 0.05 | 79 | 1013.5 |
| 20260906010004 | 23 | 135 | 0.0 | 4.8 | 0.00 | 0.05 | 0.05 | 77 | 1013.4 |
| 20260906004544 | 23 | 142 | 0.0 | 4.8 | 0.00 | 0.05 | 0.05 | 77 | 1013.2 |
| 20260906003104 | 23 | 158 | 1.6 | 4.8 | 0.00 | 0.05 | 0.05 | 75 | 1013.3 |
| 20260906001544 | 24 | 133 | 0.0 | 3.2 | 0.00 | 0.05 | 0.05 | 75 | 1013.1 |
| 20260906000108 | 24 | 129 | 0.0 | 9.7 | 0.00 | 0.05 | 0.05 | 74 | 1012.7 |
| 20260905234547 | 24 | 93 | 3.2 | 14.5 | 0.00 | 0.05 | 0.05 | 74 | 1012.7 |
| 20260905233057 | 25 | 89 | 6.4 | 14.5 | 0.00 | 0.05 | 0.05 | 72 | 1012.7 |
| 20260905231532 | 25 | 64 | 16.1 | 22.5 | 0.00 | 0.05 | 0.05 | 70 | 1012.9 |
| 20260905230050 | 28 | 114 | 22.5 | 46.7 | 0.00 | 0.05 | 0.05 | 64 | 1013.2 |
| 20260905224512 | 30 | 22 | 1.6 | 9.7 | 0.00 | 0.05 | 0.05 | 64 | 1012.8 |
| 20260905223044 | 30 | 274 | 1.6 | 8.0 | 0.00 | 0.05 | 0.05 | 63 | 1012.7 |
| 20260905221520 | 31 | 312 | 4.8 | 9.7 | 0.00 | 0.05 | 0.05 | 61 | 1012.2 |
| 20260905220034 | 31 | 296 | 3.2 | 9.7 | 0.00 | 0.05 | 0.05 | 59 | 1012.4 |
| 20260905214518 | 31 | 33 | 4.8 | 16.1 | 0.00 | 0.05 | 0.05 | 58 | 1012.9 |
| 20260905213029 | 31 | 10 | 8.0 | 16.1 | 0.00 | 0.05 | 0.05 | 57 | 1012.7 |
| 20260905211609 | 31 | 12 | 9.7 | 16.1 | 0.00 | 0.05 | 0.05 | 57 | 1012.7 |
| 20260905210031 | 31 | 349 | 8.0 | 16.1 | 0.00 | 0.05 | 0.05 | 56 | 1013.0 |
| 20260905204600 | 31 | 337 | 9.7 | 16.1 | 0.00 | 0.05 | 0.05 | 56 | 1012.8 |
| 20260905203026 | 31 | 305 | 4.8 | 14.5 | 0.00 | 0.05 | 0.05 | 55 | 1013.0 |
| 20260905201552 | 31 | 29 | 1.6 | 16.1 | 0.00 | 0.05 | 0.05 | 57 | 1013.1 |
| 20260905200109 | 31 | 295 | 6.4 | 16.1 | 0.00 | 0.05 | 0.05 | 57 | 1013.3 |
| 20260905194538 | 31 | 296 | 9.7 | 20.9 | 0.00 | 1.27 | 0.05 | 57 | 1013.4 |
| 20260905193051 | 31 | 348 | 8.0 | 17.7 | 0.00 | 1.27 | 0.05 | 57 | 1013.9 |
| 20260905191512 | 30 | 294 | 9.7 | 16.1 | 0.00 | 1.27 | 0.05 | 56 | 1014.2 |
| 20260905190044 | 30 | 302 | 9.7 | 16.1 | 0.00 | 1.27 | 0.05 | 58 | 1014.3 |